Time;durP1;ratioP1;P1;durP2;ratioP2;P2;SDS_P1;SDS_P2;PMS_P1;PMS_P2;Temp;Humidity;BMP_temperature;BMP_pressure;BME280_temperature;BME280_humidity;BME280_pressure;Samples;Min_cycle;Max_cycle;Signal;HPM_P1;HPM_P2
2021/09/19 00:06:48;;;;;;;4.8;3.2;;;;;;;11.68;100;98196.95;;;;
2021/09/19 00:16:48;;;;;;;7.1;4.2;;;;;;;11.6;100;98190.47;;;;
2021/09/19 00:26:46;;;;;;;6.8;4.3;;;;;;;11.29;100;98198.02;;;;
2021/09/19 00:36:45;;;;;;;5;3.7;;;;;;;11.09;100;98204.89;;;;
2021/09/19 00:46:45;;;;;;;6;3.7;;;;;;;10.79;100;98205.08;;;;
2021/09/19 00:56:44;;;;;;;7.9;4.6;;;;;;;10.66;100;98206.81;;;;
2021/09/19 01:06:43;;;;;;;6.5;4.5;;;;;;;10.68;100;98218.08;;;;
2021/09/19 01:16:42;;;;;;;9.2;6.2;;;;;;;10.63;100;98218.23;;;;
2021/09/19 01:26:41;;;;;;;9.8;6.9;;;;;;;10.45;100;98214.72;;;;
2021/09/19 01:36:40;;;;;;;9.6;6.9;;;;;;;10.45;100;98216.62;;;;
2021/09/19 01:46:39;;;;;;;7.9;6.2;;;;;;;10.39;100;98228.66;;;;
2021/09/19 01:56:38;;;;;;;13.8;5.4;;;;;;;10.24;100;98242.59;;;;
2021/09/19 02:06:38;;;;;;;9.4;6.2;;;;;;;10.04;100;98254.67;;;;
2021/09/19 02:16:37;;;;;;;8.9;5.6;;;;;;;9.86;100;98247.63;;;;
2021/09/19 02:26:36;;;;;;;8.3;5.4;;;;;;;9.73;100;98249.33;;;;
2021/09/19 02:36:40;;;;;;;10.9;8.3;;;;;;;9.73;100;98237.77;;;;
2021/09/19 02:46:34;;;;;;;10.7;7.5;;;;;;;9.76;100;98245.22;;;;
2021/09/19 02:56:32;;;;;;;17.3;9.8;;;;;;;9.89;100;98244.34;;;;
2021/09/19 03:06:32;;;;;;;9;6.6;;;;;;;9.95;100;98237.71;;;;
2021/09/19 03:16:31;;;;;;;11.3;6.6;;;;;;;9.8;100;98254.27;;;;
2021/09/19 03:26:30;;;;;;;10;6.7;;;;;;;9.66;100;98262.44;;;;
2021/09/19 03:36:29;;;;;;;11.8;6.9;;;;;;;9.28;100;98278.19;;;;
2021/09/19 03:46:28;;;;;;;9.6;5.7;;;;;;;9.05;100;98296.23;;;;
2021/09/19 03:56:26;;;;;;;13;7.9;;;;;;;8.93;100;98287.89;;;;
2021/09/19 04:06:25;;;;;;;10;6.7;;;;;;;8.82;100;98288.41;;;;
2021/09/19 04:16:24;;;;;;;12.9;7.6;;;;;;;8.65;100;98286.37;;;;
2021/09/19 04:26:23;;;;;;;12.3;8.9;;;;;;;8.58;100;98300.21;;;;
2021/09/19 04:36:22;;;;;;;9.1;6.6;;;;;;;8.5;100;98302.83;;;;
2021/09/19 04:46:20;;;;;;;10.3;8.5;;;;;;;8.53;100;98315.66;;;;
2021/09/19 04:56:19;;;;;;;10.3;8.1;;;;;;;8.49;100;98334.25;;;;
2021/09/19 05:06:18;;;;;;;13.4;9.9;;;;;;;8.5;100;98330.45;;;;
2021/09/19 05:16:17;;;;;;;10.2;7.6;;;;;;;8.32;100;98344.01;;;;
2021/09/19 05:26:16;;;;;;;10.8;8.4;;;;;;;8.36;100;98342.32;;;;
2021/09/19 05:36:15;;;;;;;13.4;9.9;;;;;;;8.31;100;98356.63;;;;
2021/09/19 05:46:16;;;;;;;15.9;7.7;;;;;;;8.38;100;98367.77;;;;
2021/09/19 05:56:12;;;;;;;13.3;8.7;;;;;;;8.37;100;98362.69;;;;
2021/09/19 06:06:11;;;;;;;13.7;7.7;;;;;;;8.39;100;98355.15;;;;
2021/09/19 06:16:10;;;;;;;10.9;7.5;;;;;;;8.4;100;98370.94;;;;
2021/09/19 06:26:09;;;;;;;8.2;5.6;;;;;;;8.42;100;98384.88;;;;
2021/09/19 06:36:07;;;;;;;9.8;7.2;;;;;;;8.52;100;98382;;;;
2021/09/19 06:46:07;;;;;;;10.7;6.7;;;;;;;8.54;100;98392.42;;;;
2021/09/19 06:56:07;;;;;;;10.4;5.3;;;;;;;8.42;100;98392.14;;;;
2021/09/19 07:06:07;;;;;;;9;7.5;;;;;;;8.42;100;98400.2;;;;
2021/09/19 07:16:02;;;;;;;9.5;7.6;;;;;;;8.42;100;98397.52;;;;
2021/09/19 07:26:01;;;;;;;10.8;7.2;;;;;;;8.46;100;98398.52;;;;
2021/09/19 07:36:00;;;;;;;10.9;7.8;;;;;;;8.63;100;98404.09;;;;
2021/09/19 07:45:59;;;;;;;11.7;7.5;;;;;;;8.9;100;98408.64;;;;
2021/09/19 07:55:58;;;;;;;11.2;7.2;;;;;;;9.61;100;98407.88;;;;
2021/09/19 08:05:57;;;;;;;7.5;4.8;;;;;;;9.98;100;98407.48;;;;
2021/09/19 08:15:56;;;;;;;7.6;4.7;;;;;;;10.06;100;98420.22;;;;
2021/09/19 08:25:55;;;;;;;8.4;4.3;;;;;;;10.19;100;98417.77;;;;
2021/09/19 08:35:54;;;;;;;7;6.1;;;;;;;10.55;100;98423.82;;;;
2021/09/19 08:45:53;;;;;;;14.4;6.3;;;;;;;10.45;100;98427.56;;;;
2021/09/19 08:55:52;;;;;;;7.5;4.6;;;;;;;10.6;100;98423.67;;;;
2021/09/19 09:05:51;;;;;;;7.8;4.9;;;;;;;10.78;100;98422.63;;;;
2021/09/19 09:15:51;;;;;;;13.1;5.4;;;;;;;10.89;100;98431.23;;;;
2021/09/19 09:25:50;;;;;;;7.4;5.1;;;;;;;10.68;100;98430.2;;;;
2021/09/19 09:35:49;;;;;;;10.5;7.4;;;;;;;10.38;100;98421.82;;;;
2021/09/19 09:45:48;;;;;;;7.3;5;;;;;;;10.44;100;98436.77;;;;
2021/09/19 09:55:47;;;;;;;6.9;4.2;;;;;;;10.57;100;98437.77;;;;
2021/09/19 10:05:46;;;;;;;7.2;3.3;;;;;;;10.73;100;98438.13;;;;
2021/09/19 10:15:45;;;;;;;5;2.4;;;;;;;11.21;100;98440.83;;;;
2021/09/19 10:25:45;;;;;;;7.5;4.3;;;;;;;11.16;100;98441.77;;;;
2021/09/19 10:35:44;;;;;;;6.5;4.7;;;;;;;11.23;100;98447.48;;;;
2021/09/19 10:45:43;;;;;;;10.6;6.3;;;;;;;11.13;100;98439.7;;;;
2021/09/19 10:55:50;;;;;;;13.3;7.9;;;;;;;11.39;100;98455.91;;;;
2021/09/19 11:05:42;;;;;;;10.7;6.7;;;;;;;11.69;100;98449.6;;;;
2021/09/19 11:15:41;;;;;;;9.9;5.4;;;;;;;11.44;100;98456.57;;;;
2021/09/19 11:25:40;;;;;;;11.5;7;;;;;;;11.78;100;98452.31;;;;
2021/09/19 11:35:40;;;;;;;10.8;6.8;;;;;;;11.94;100;98448.8;;;;
2021/09/19 11:45:39;;;;;;;7.7;4.8;;;;;;;11.95;100;98441.5;;;;
2021/09/19 11:55:38;;;;;;;8.1;5.3;;;;;;;12.04;100;98440.38;;;;
2021/09/19 12:05:38;;;;;;;7.8;5.5;;;;;;;12.42;100;98432.36;;;;
2021/09/19 12:15:37;;;;;;;7.9;5.9;;;;;;;12.96;100;98430.69;;;;
2021/09/19 12:25:36;;;;;;;14.5;6.4;;;;;;;13.14;100;98433.33;;;;
2021/09/19 12:35:36;;;;;;;9.5;6.7;;;;;;;13.13;100;98423.62;;;;
2021/09/19 12:45:35;;;;;;;12;7.6;;;;;;;13.28;100;98415.73;;;;
2021/09/19 12:55:35;;;;;;;13.6;8.1;;;;;;;12.9;100;98429.3;;;;
2021/09/19 13:05:35;;;;;;;12.4;7.6;;;;;;;12.27;100;98427.47;;;;
2021/09/19 13:15:34;;;;;;;10.2;8.1;;;;;;;11.85;100;98423.73;;;;
2021/09/19 13:25:33;;;;;;;10.3;7.1;;;;;;;11.6;100;98429.89;;;;
2021/09/19 13:35:33;;;;;;;15.2;9;;;;;;;11.39;100;98431.63;;;;
2021/09/19 13:45:32;;;;;;;11;8.2;;;;;;;11.17;100;98445.26;;;;
2021/09/19 13:55:31;;;;;;;9.8;6.5;;;;;;;11.02;100;98441.09;;;;
2021/09/19 14:05:31;;;;;;;10.1;7.3;;;;;;;11.07;100;98439.03;;;;
2021/09/19 14:15:30;;;;;;;11.2;7.3;;;;;;;11.08;100;98437.13;;;;
2021/09/19 14:25:29;;;;;;;11.8;9.9;;;;;;;10.81;100;98446.27;;;;
2021/09/19 14:35:28;;;;;;;11.9;9.4;;;;;;;10.77;100;98447.19;;;;
2021/09/19 14:45:28;;;;;;;15.3;11;;;;;;;10.72;100;98464.32;;;;
2021/09/19 14:55:27;;;;;;;11.7;10.5;;;;;;;11;100;98457.57;;;;
2021/09/19 15:05:27;;;;;;;15;10.1;;;;;;;10.99;100;98455.2;;;;
2021/09/19 15:15:27;;;;;;;13.1;10.1;;;;;;;10.92;100;98449.47;;;;
2021/09/19 15:25:25;;;;;;;12.6;9.6;;;;;;;10.86;100;98451.53;;;;
2021/09/19 15:35:27;;;;;;;17.1;9.4;;;;;;;10.75;100;98452.91;;;;
2021/09/19 15:45:25;;;;;;;13;10.1;;;;;;;10.69;100;98456.83;;;;
2021/09/19 15:55:26;;;;;;;14.9;11.8;;;;;;;10.56;100;98457.73;;;;
2021/09/19 16:05:27;;;;;;;15.2;11;;;;;;;10.55;100;98454.23;;;;
2021/09/19 16:15:23;;;;;;;12.5;8.9;;;;;;;10.46;100;98452.61;;;;
2021/09/19 16:25:23;;;;;;;13.4;9.5;;;;;;;10.47;100;98456.91;;;;
2021/09/19 16:35:24;;;;;;;14.4;9.3;;;;;;;10.52;100;98451.36;;;;
2021/09/19 16:45:19;;;;;;;10.6;9.2;;;;;;;10.44;100;98465.61;;;;
2021/09/19 16:55:17;;;;;;;12;9.6;;;;;;;10.43;100;98445.95;;;;
2021/09/19 17:05:17;;;;;;;17.3;12.1;;;;;;;10.44;100;98458.33;;;;
2021/09/19 17:15:16;;;;;;;20.2;13;;;;;;;10.38;100;98464.92;;;;
2021/09/19 17:25:15;;;;;;;16;10.5;;;;;;;10.41;100;98463.53;;;;
2021/09/19 17:35:14;;;;;;;19.2;12.6;;;;;;;10.41;100;98477.77;;;;
2021/09/19 17:45:13;;;;;;;13.8;11.1;;;;;;;10.44;100;98487.96;;;;
2021/09/19 17:55:12;;;;;;;14.7;12;;;;;;;10.27;100;98495.14;;;;
2021/09/19 18:05:11;;;;;;;16.5;11.6;;;;;;;10.35;100;98486.3;;;;
2021/09/19 18:15:11;;;;;;;16.1;12.8;;;;;;;10.35;100;98492.48;;;;
2021/09/19 18:25:10;;;;;;;21.7;14.7;;;;;;;10.47;100;98487.34;;;;
2021/09/19 18:35:09;;;;;;;18.4;12.7;;;;;;;10.47;100;98481.95;;;;
2021/09/19 18:45:08;;;;;;;14.2;11.1;;;;;;;10.59;100;98486.75;;;;
2021/09/19 18:55:09;;;;;;;15;11.5;;;;;;;10.59;100;98489.44;;;;
2021/09/19 19:05:07;;;;;;;12.3;10;;;;;;;10.66;100;98492.48;;;;
2021/09/19 19:15:06;;;;;;;19.1;13;;;;;;;10.51;100;98490.22;;;;
2021/09/19 19:25:05;;;;;;;15;12;;;;;;;10.43;100;98497.14;;;;
2021/09/19 19:35:04;;;;;;;13.9;11.2;;;;;;;10.51;100;98496.41;;;;
2021/09/19 19:45:03;;;;;;;16.6;11.8;;;;;;;10.47;100;98500.02;;;;
2021/09/19 19:55:02;;;;;;;15.7;13.3;;;;;;;10.53;100;98498.77;;;;
2021/09/19 20:05:02;;;;;;;19;14.2;;;;;;;10.59;100;98500.22;;;;
2021/09/19 20:15:01;;;;;;;16.8;13.9;;;;;;;10.47;100;98510.79;;;;
2021/09/19 20:25:01;;;;;;;15.5;12.5;;;;;;;10.48;100;98510.47;;;;
2021/09/19 20:34:59;;;;;;;15.7;11.3;;;;;;;10.44;100;98512.21;;;;
2021/09/19 20:44:59;;;;;;;18.4;13.6;;;;;;;10.39;100;98508.83;;;;
2021/09/19 20:54:58;;;;;;;21.8;12.5;;;;;;;10.23;100;98507.63;;;;
2021/09/19 21:04:57;;;;;;;14.5;12.8;;;;;;;10.2;100;98500.96;;;;
2021/09/19 21:14:56;;;;;;;15.3;13.7;;;;;;;10.19;100;98506.64;;;;
2021/09/19 21:24:57;;;;;;;20;13.7;;;;;;;10.3;100;98499.91;;;;
2021/09/19 21:34:55;;;;;;;16.9;12.6;;;;;;;10.34;100;98506.28;;;;
2021/09/19 21:44:54;;;;;;;17.7;12.5;;;;;;;10.33;100;98510.87;;;;
2021/09/19 21:54:53;;;;;;;13.9;12.1;;;;;;;10.29;100;98514.47;;;;
2021/09/19 22:04:52;;;;;;;15.1;11.2;;;;;;;10.26;100;98515.09;;;;
2021/09/19 22:14:51;;;;;;;11.9;9.6;;;;;;;10.33;100;98521.64;;;;
2021/09/19 22:24:50;;;;;;;16.3;11.7;;;;;;;10.29;100;98515.27;;;;
2021/09/19 22:34:50;;;;;;;13.8;11.9;;;;;;;10.34;100;98512.47;;;;
2021/09/19 22:44:49;;;;;;;19.3;12.3;;;;;;;10.37;100;98527.21;;;;
2021/09/19 22:54:48;;;;;;;16.7;12.4;;;;;;;10.34;100;98511.66;;;;
2021/09/19 23:04:47;;;;;;;15.1;13.1;;;;;;;10.33;100;98510.06;;;;
2021/09/19 23:14:51;;;;;;;16.2;12.6;;;;;;;10.3;100;98503.41;;;;
2021/09/19 23:24:46;;;;;;;24.8;15.3;;;;;;;10.37;100;98505.66;;;;
2021/09/19 23:34:45;;;;;;;19.6;14.3;;;;;;;10.28;100;98505.59;;;;
2021/09/19 23:44:44;;;;;;;19.3;16.3;;;;;;;10.2;100;98510.94;;;;
2021/09/19 23:54:43;;;;;;;18.5;13.6;;;;;;;10.3;100;98510.69;;;;
